createdAt,value
2024-02-29T00:02:17.669Z,7.50
2024-02-29T00:06:19.243Z,7.20
2024-02-29T00:10:20.712Z,7.20
2024-02-29T00:14:21.780Z,7.10
2024-02-29T00:18:22.896Z,7.20
2024-02-29T00:22:24.157Z,6.70
2024-02-29T00:26:25.393Z,6.60
2024-02-29T00:30:26.470Z,6.40
2024-02-29T00:34:30.748Z,5.00
2024-02-29T00:38:31.934Z,4.70
2024-02-29T00:42:33.318Z,6.10
2024-02-29T00:46:38.963Z,6.30
2024-02-29T00:50:39.975Z,6.80
2024-02-29T00:54:41.299Z,7.00
2024-02-29T00:58:42.432Z,7.00
2024-02-29T01:02:43.876Z,7.00
2024-02-29T01:06:45.084Z,7.00
2024-02-29T01:10:47.657Z,7.10
2024-02-29T01:14:48.791Z,6.50
2024-02-29T01:18:49.986Z,6.30
2024-02-29T01:22:51.619Z,5.70
2024-02-29T01:26:52.620Z,7.30
2024-02-29T01:30:53.668Z,7.80
2024-02-29T01:34:54.678Z,7.70
2024-02-29T01:38:55.719Z,7.00
2024-02-29T01:42:56.752Z,7.20
2024-02-29T01:46:57.890Z,7.60
2024-02-29T01:50:59.925Z,7.30
2024-02-29T01:55:03.462Z,7.50
2024-02-29T01:59:05.683Z,7.20
2024-02-29T02:03:06.802Z,7.50
2024-02-29T02:07:09.676Z,7.40
2024-02-29T02:11:10.946Z,7.40
2024-02-29T02:15:12.663Z,7.30
2024-02-29T02:19:14.020Z,7.20
2024-02-29T02:23:15.022Z,7.00
2024-02-29T02:27:16.193Z,6.60
2024-02-29T02:31:17.272Z,6.50
2024-02-29T02:35:18.441Z,6.70
2024-02-29T02:39:19.549Z,6.50
2024-02-29T02:43:20.700Z,6.20
2024-02-29T02:47:21.759Z,6.30
2024-02-29T02:51:27.074Z,5.90
2024-02-29T02:55:28.142Z,6.00
2024-02-29T02:59:29.160Z,6.00
2024-02-29T03:03:30.241Z,5.80
2024-02-29T03:07:31.373Z,5.50
2024-02-29T03:11:32.578Z,5.50
2024-02-29T03:15:33.724Z,4.50
2024-02-29T03:19:34.693Z,5.00
2024-02-29T03:23:35.868Z,5.20
2024-02-29T03:27:37.032Z,5.30
2024-02-29T03:31:38.389Z,5.20
2024-02-29T03:35:39.533Z,4.90
2024-02-29T03:39:40.735Z,4.90
2024-02-29T03:43:41.729Z,4.90
2024-02-29T03:47:42.880Z,5.20
2024-02-29T03:51:43.918Z,5.10
2024-02-29T03:55:48.521Z,5.00
2024-02-29T03:59:49.532Z,5.00
2024-02-29T04:03:50.717Z,4.40
2024-02-29T04:07:53.630Z,4.70
2024-02-29T04:11:54.786Z,5.10
2024-02-29T04:15:55.976Z,5.20
2024-02-29T04:19:56.952Z,4.90
2024-02-29T04:23:58.179Z,5.40
2024-02-29T04:27:59.445Z,5.30
2024-02-29T04:32:00.588Z,5.40
2024-02-29T04:36:02.059Z,5.50
2024-02-29T04:40:05.615Z,5.50
2024-02-29T04:44:08.136Z,5.60
2024-02-29T04:48:09.266Z,5.70
2024-02-29T04:52:10.667Z,5.90
2024-02-29T04:56:11.861Z,5.90
2024-02-29T05:00:13.662Z,5.10
2024-02-29T05:04:15.549Z,5.40
2024-02-29T05:08:16.779Z,5.90
2024-02-29T05:12:18.275Z,6.10
2024-02-29T05:16:21.402Z,6.00
2024-02-29T05:20:22.624Z,5.50
2024-02-29T05:24:23.791Z,5.50
2024-02-29T05:28:24.917Z,5.60
2024-02-29T05:32:25.949Z,5.20
2024-02-29T05:36:27.732Z,4.40
2024-02-29T05:40:28.933Z,5.40
2024-02-29T05:44:31.575Z,5.90
2024-02-29T05:48:34.661Z,6.00
2024-02-29T05:52:36.827Z,6.00
2024-02-29T05:56:38.062Z,6.30
2024-02-29T06:00:39.159Z,6.20
2024-02-29T06:04:40.616Z,5.80
2024-02-29T06:08:41.693Z,6.20
2024-02-29T06:12:43.297Z,6.20
2024-02-29T06:16:44.487Z,6.30
2024-02-29T06:20:45.458Z,6.20
2024-02-29T06:24:46.593Z,6.30
2024-02-29T06:28:47.676Z,6.50
2024-02-29T06:32:48.842Z,5.00
2024-02-29T06:36:50.079Z,5.10
2024-02-29T06:40:51.179Z,5.50
2024-02-29T06:44:53.179Z,6.50
2024-02-29T06:48:54.457Z,6.50
2024-02-29T06:52:58.053Z,6.20
2024-02-29T06:56:59.380Z,5.30
2024-02-29T07:01:01.646Z,7.20
2024-02-29T07:05:03.294Z,7.30
2024-02-29T07:09:04.359Z,6.70
2024-02-29T07:13:05.560Z,7.30
2024-02-29T07:17:06.879Z,7.20
2024-02-29T07:21:07.888Z,6.70
2024-02-29T07:25:09.595Z,7.30
2024-02-29T07:29:10.796Z,7.80
2024-02-29T07:33:11.779Z,7.70
2024-02-29T07:37:13.359Z,7.00
2024-02-29T07:41:14.917Z,7.00
2024-02-29T07:45:19.293Z,7.30
2024-02-29T07:49:19.462Z,7.20
2024-02-29T07:53:20.564Z,7.40
2024-02-29T07:57:21.759Z,7.70
2024-02-29T08:01:22.937Z,7.90
2024-02-29T08:05:25.146Z,8.10
2024-02-29T08:09:26.286Z,8.00
2024-02-29T08:13:27.359Z,7.90
2024-02-29T08:17:29.141Z,7.70
2024-02-29T08:21:32.153Z,8.00
2024-02-29T08:25:33.139Z,8.40
2024-02-29T08:29:34.139Z,8.80
2024-02-29T08:33:35.204Z,9.50
2024-02-29T08:37:36.487Z,9.40
2024-02-29T08:41:37.899Z,10.30
2024-02-29T08:45:39.365Z,8.90
2024-02-29T08:49:42.514Z,9.80
2024-02-29T08:53:43.637Z,9.90
2024-02-29T08:57:45.020Z,9.80
2024-02-29T09:01:46.689Z,9.00
2024-02-29T09:05:47.994Z,8.60
2024-02-29T09:09:51.124Z,9.20
2024-02-29T09:13:52.454Z,9.10
2024-02-29T09:17:53.711Z,8.40
2024-02-29T09:21:54.856Z,8.10
2024-02-29T09:25:56.081Z,7.70
2024-02-29T09:29:58.799Z,7.20
2024-02-29T09:34:00.244Z,8.70
2024-02-29T09:38:01.780Z,8.90
2024-02-29T09:46:10.286Z,9.50
2024-02-29T09:50:11.999Z,8.60
2024-02-29T09:54:18.017Z,8.10
2024-02-29T09:58:21.332Z,9.40
2024-02-29T10:02:23.777Z,9.10
2024-02-29T10:06:24.800Z,9.00
2024-02-29T10:10:26.048Z,9.80
2024-02-29T10:14:27.148Z,8.30
2024-02-29T10:18:33.930Z,8.50
2024-02-29T10:22:35.586Z,8.60
2024-02-29T10:26:36.844Z,9.20
2024-02-29T10:30:37.897Z,9.60
2024-02-29T10:34:40.547Z,9.90
2024-02-29T10:38:41.891Z,9.90
2024-02-29T10:42:43.640Z,10.10
2024-02-29T10:46:48.116Z,8.50
2024-02-29T10:51:02.009Z,9.30
2024-02-29T10:55:06.452Z,9.90
2024-02-29T10:59:08.400Z,10.00
2024-02-29T11:03:12.801Z,11.30
2024-02-29T11:07:14.535Z,10.70
2024-02-29T11:11:27.449Z,10.60
2024-02-29T11:15:28.756Z,10.90
2024-02-29T11:19:30.161Z,10.80
2024-02-29T11:23:38.538Z,10.70
2024-02-29T11:27:48.531Z,11.50
2024-02-29T11:31:57.319Z,11.60
2024-02-29T11:35:59.969Z,12.00
2024-02-29T11:40:06.750Z,13.10
2024-02-29T11:44:08.166Z,12.80
2024-02-29T11:48:09.262Z,11.60
2024-02-29T11:52:10.948Z,11.90
2024-02-29T11:56:16.004Z,10.70
2024-02-29T12:00:16.635Z,12.20
2024-02-29T12:04:17.838Z,12.30
2024-02-29T12:08:19.381Z,11.70
2024-02-29T12:12:21.331Z,12.30
2024-02-29T12:16:22.810Z,11.90
2024-02-29T12:20:23.970Z,11.90
2024-02-29T12:24:26.592Z,12.70
2024-02-29T12:28:30.854Z,13.00
2024-02-29T12:32:32.378Z,12.80
2024-02-29T12:36:33.548Z,13.10
2024-02-29T12:40:34.859Z,13.30
2024-02-29T12:44:37.632Z,12.90
2024-02-29T12:48:38.848Z,13.50
2024-02-29T12:52:39.938Z,14.20
2024-02-29T12:56:41.179Z,13.50
2024-02-29T13:00:42.863Z,13.40
2024-02-29T13:04:44.155Z,13.10
2024-02-29T13:08:45.628Z,13.80
2024-02-29T13:12:51.808Z,12.70
2024-02-29T13:16:50.027Z,13.40
2024-02-29T13:20:51.345Z,13.30
2024-02-29T13:24:52.805Z,12.90
2024-02-29T13:28:54.038Z,12.40
2024-02-29T13:32:55.082Z,12.70
2024-02-29T13:36:56.302Z,13.10
2024-02-29T13:40:57.260Z,14.00
2024-02-29T13:44:58.352Z,15.40
2024-02-29T13:49:20.311Z,15.10
2024-02-29T13:53:02.497Z,15.00
2024-02-29T13:57:03.751Z,15.80
2024-02-29T14:01:08.481Z,15.90
2024-02-29T14:05:08.330Z,15.70
2024-02-29T14:09:11.484Z,14.90
2024-02-29T14:13:12.663Z,15.50
2024-02-29T14:17:13.851Z,14.70
2024-02-29T14:21:19.521Z,13.10
2024-02-29T14:25:22.577Z,12.10
2024-02-29T14:29:23.571Z,12.60
2024-02-29T14:33:24.767Z,12.90
2024-02-29T14:37:26.162Z,12.20
2024-02-29T14:41:29.183Z,13.00
2024-02-29T14:45:30.423Z,13.00
2024-02-29T14:49:31.809Z,13.00
2024-02-29T14:53:33.694Z,12.00
2024-02-29T14:57:35.060Z,12.80
2024-02-29T15:01:36.160Z,12.50
2024-02-29T15:05:37.468Z,12.50
2024-02-29T15:09:39.374Z,11.90
2024-02-29T15:13:40.381Z,13.40
2024-02-29T15:17:41.901Z,13.80
2024-02-29T15:21:44.860Z,13.00
2024-02-29T15:25:47.553Z,12.30
2024-02-29T15:29:49.735Z,12.70
2024-02-29T15:33:50.830Z,13.00
2024-02-29T15:37:52.008Z,12.50
2024-02-29T15:41:53.237Z,13.60
2024-02-29T15:45:54.521Z,13.40
2024-02-29T15:49:56.289Z,13.70
2024-02-29T15:53:57.618Z,13.50
2024-02-29T15:57:59.076Z,13.70
2024-02-29T16:02:00.222Z,13.30
2024-02-29T16:06:01.557Z,12.80
2024-02-29T16:10:02.855Z,13.20
2024-02-29T16:14:04.440Z,13.40
2024-02-29T16:18:06.633Z,13.00
2024-02-29T16:22:07.683Z,13.60
2024-02-29T16:26:08.927Z,12.70
2024-02-29T16:30:10.398Z,12.20
2024-02-29T16:34:12.073Z,12.30
2024-02-29T16:38:13.285Z,12.90
2024-02-29T16:42:14.519Z,12.30
2024-02-29T16:46:17.387Z,12.70
2024-02-29T16:50:18.656Z,13.00
2024-02-29T16:54:20.155Z,13.00
2024-02-29T16:58:21.554Z,13.10
2024-02-29T17:02:22.744Z,12.80
2024-02-29T17:06:24.241Z,13.10
2024-02-29T17:10:25.354Z,13.00
2024-02-29T17:14:26.531Z,12.80
2024-02-29T17:18:27.873Z,12.70
2024-02-29T17:22:29.209Z,11.50
2024-02-29T17:26:31.396Z,11.60
2024-02-29T17:30:33.089Z,11.60
2024-02-29T17:34:34.100Z,11.30
2024-02-29T17:38:35.327Z,11.60
2024-02-29T17:42:36.564Z,11.70
2024-02-29T17:46:37.690Z,11.70
2024-02-29T17:50:39.753Z,10.80
2024-02-29T17:54:40.932Z,10.40
2024-02-29T17:58:42.071Z,10.10
2024-02-29T18:02:43.289Z,10.20
2024-02-29T18:06:44.353Z,10.30
2024-02-29T18:10:45.377Z,10.70
2024-02-29T18:14:46.420Z,10.60
2024-02-29T18:18:47.520Z,10.30
2024-02-29T18:22:49.647Z,10.20
2024-02-29T18:26:50.693Z,9.70
2024-02-29T18:30:51.745Z,9.70
2024-02-29T18:34:52.992Z,9.70
2024-02-29T18:38:55.352Z,9.70
2024-02-29T18:42:56.500Z,9.70
2024-02-29T18:47:00.081Z,9.30
2024-02-29T18:51:01.333Z,9.40
2024-02-29T18:55:02.550Z,8.90
2024-02-29T18:59:03.849Z,9.00
2024-02-29T19:03:04.886Z,8.90
2024-02-29T19:07:06.139Z,9.30
2024-02-29T19:11:07.385Z,9.30
2024-02-29T19:15:09.804Z,9.30
2024-02-29T19:19:13.227Z,9.10
2024-02-29T19:23:14.382Z,9.40
2024-02-29T19:27:15.529Z,9.40
2024-02-29T19:31:16.602Z,9.30
2024-02-29T19:35:17.719Z,8.30
2024-02-29T19:39:18.890Z,8.90
2024-02-29T19:43:21.986Z,9.00
2024-02-29T19:47:23.515Z,9.00
2024-02-29T19:51:24.675Z,8.60
2024-02-29T19:55:25.891Z,8.60
2024-02-29T19:59:27.060Z,8.90
2024-02-29T20:03:30.038Z,8.80
2024-02-29T20:07:31.127Z,8.80
2024-02-29T20:11:32.220Z,8.70
2024-02-29T20:15:33.272Z,8.70
2024-02-29T20:19:36.458Z,8.50
2024-02-29T20:23:37.292Z,8.30
2024-02-29T20:27:38.400Z,8.30
2024-02-29T20:31:39.531Z,8.30
2024-02-29T20:35:40.640Z,8.20
2024-02-29T20:39:41.653Z,8.10
2024-02-29T20:43:42.808Z,7.90
2024-02-29T20:47:45.068Z,7.80
2024-02-29T20:51:46.162Z,7.70
2024-02-29T20:55:47.179Z,8.00
2024-02-29T20:59:48.272Z,8.50
2024-02-29T21:03:50.101Z,8.40
2024-02-29T21:07:51.152Z,8.50
2024-02-29T21:16:03.330Z,8.60
2024-02-29T21:20:05.261Z,8.20
2024-02-29T21:24:06.477Z,8.60
2024-02-29T21:28:07.638Z,8.50
2024-02-29T21:32:08.852Z,8.30
2024-02-29T21:36:10.826Z,8.20
2024-02-29T21:40:12.565Z,8.20
2024-02-29T21:44:13.522Z,8.30
2024-02-29T21:48:14.633Z,8.00
2024-02-29T21:52:16.014Z,8.30
2024-02-29T21:56:17.106Z,8.20
2024-02-29T22:00:18.115Z,8.10
2024-02-29T22:04:19.410Z,8.30
2024-02-29T22:08:21.124Z,8.50
2024-02-29T22:12:22.265Z,8.50
2024-02-29T22:16:23.313Z,8.40
2024-02-29T22:20:24.364Z,8.50
2024-02-29T22:24:25.371Z,8.10
2024-02-29T22:28:26.435Z,8.30
2024-02-29T22:32:27.482Z,8.10
2024-02-29T22:36:28.567Z,8.50
2024-02-29T22:40:30.001Z,8.10
2024-02-29T22:44:33.335Z,8.40
2024-02-29T22:48:34.876Z,8.50
2024-02-29T22:52:36.079Z,8.30
2024-02-29T22:56:37.235Z,8.60
2024-02-29T23:00:39.280Z,8.60
2024-02-29T23:04:40.257Z,8.50
2024-02-29T23:08:41.845Z,8.00
2024-02-29T23:12:43.648Z,8.20
2024-02-29T23:16:44.763Z,7.80
2024-02-29T23:20:45.977Z,8.00
2024-02-29T23:24:47.405Z,7.60
2024-02-29T23:28:48.655Z,7.50
2024-02-29T23:32:49.991Z,7.30
2024-02-29T23:36:51.108Z,7.60
2024-02-29T23:40:52.252Z,7.80
2024-02-29T23:44:53.372Z,7.40
2024-02-29T23:48:54.536Z,6.90
2024-02-29T23:52:55.606Z,7.50
2024-02-29T23:56:57.727Z,7.80
